Nordic Stockholm — 2DKI2 — position and weather

sailwx.info

Track history (hours):
 
Tides and Currents Weather Stations Pressure Air Temp Water Temp Dewpoint Dewpoint Depression Visibility Wind Speed Wind Dir Waves Ship Positions

Nordic Stockholm

Last reported at 2016-Jul-28 15:26 UTC. Time now 2016-Jul-28 16:25 UTC.
Position N 33°26' W 008°54'.

Length 180 m; draft 10.3 m.

Type: Cargo ship. MMSI: 235079725.

Date/timePositionNaut miles runAvg speedWind from/ knotsBaromVisibWave heightAir tempDewpointWater temp
2016-Jul-28 15:26N 33°26' W 008°54'1110.9
2016-Jul-28 14:26N 33°18' W 009°04'4210.8
2016-Jul-28 10:33N 32°47' W 009°37'3710.8
2016-Jul-28 07:07N 32°20' W 010°06'5110.6
2016-Jul-28 02:19N 31°40' W 010°44'9 9.3
2016-Jul-28 01:24N 31°33' W 010°50'39 9.1
2016-Jul-27 21:07N 31°01' W 011°16'8 9.2
2016-Jul-27 20:17N 30°55' W 011°21'10 9.2
2016-Jul-27 19:14N 30°47' W 011°28'6 9.4
2016-Jul-27 18:33N 30°42' W 011°32'9 9.4
2016-Jul-27 17:33N 30°34' W 011°38'10 9.9
2016-Jul-27 16:33N 30°26' W 011°45'1010.1
2016-Jul-27 15:33N 30°18' W 011°52'1010.3
2016-Jul-27 14:34N 30°09' W 011°58'1010.2
2016-Jul-27 13:33N 30°01' W 012°06'1210.3
2016-Jul-27 12:23N 29°51' W 012°14'910.3
2016-Jul-27 11:28N 29°44' W 012°20'910.0
2016-Jul-27 10:33N 29°36' W 012°26'1010.1
2016-Jul-27 09:33N 29°28' W 012°33'10 9.9
2016-Jul-27 08:34N 29°20' W 012°39'1010.1
2016-Jul-27 07:33N 29°11' W 012°46'1010.5
2016-Jul-27 06:33N 29°03' W 012°53'1110.6
2016-Jul-27 05:33N 28°54' W 013°00'1010.5
2016-Jul-27 04:33N 28°46' W 013°07'1211.4
2016-Jul-27 03:33N 28°36' W 013°14'1111.2
2016-Jul-27 02:33N 28°27' W 013°21'1111.1
2016-Jul-27 01:33N 28°18' W 013°28'1110.9
2016-Jul-27 00:34N 28°09' W 013°36'1010.4
2016-Jul-26 23:33N 28°00' W 013°42'1010.4
2016-Jul-26 22:34N 27°52' W 013°49'1110.8
2016-Jul-26 21:34N 27°43' W 013°56'1111.2
2016-Jul-26 20:33N 27°34' W 014°04'1611.5
2016-Jul-26 19:12N 27°21' W 014°14'1412.3
2016-Jul-26 18:04N 27°10' W 014°22'1912.4
2016-Jul-26 16:33N 26°54' W 014°33'  
Track history (hours):
 
Tides and Currents Weather Stations Pressure Air Temp Water Temp Dewpoint Dewpoint Depression Visibility Wind Speed Wind Dir Waves Ship Positions

Nordic Stockholm

Last reported at 2016-Jul-28 15:26 UTC. Time now 2016-Jul-28 16:25 UTC.
Position N 33°26' W 008°54'.

Length 180 m; draft 10.3 m.

Type: Cargo ship. MMSI: 235079725.

Date/timePositionNaut miles runAvg speedWind from/ knotsBaromVisibWave heightAir tempDewpointWater temp
2016-Jul-28 15:26N 33°26' W 008°54'1110.9
2016-Jul-28 14:26N 33°18' W 009°04'4210.8
2016-Jul-28 10:33N 32°47' W 009°37'3710.8
2016-Jul-28 07:07N 32°20' W 010°06'5110.6
2016-Jul-28 02:19N 31°40' W 010°44'9 9.3
2016-Jul-28 01:24N 31°33' W 010°50'39 9.1
2016-Jul-27 21:07N 31°01' W 011°16'8 9.2
2016-Jul-27 20:17N 30°55' W 011°21'10 9.2
2016-Jul-27 19:14N 30°47' W 011°28'6 9.4
2016-Jul-27 18:33N 30°42' W 011°32'9 9.4
2016-Jul-27 17:33N 30°34' W 011°38'10 9.9
2016-Jul-27 16:33N 30°26' W 011°45'1010.1
2016-Jul-27 15:33N 30°18' W 011°52'1010.3
2016-Jul-27 14:34N 30°09' W 011°58'1010.2
2016-Jul-27 13:33N 30°01' W 012°06'1210.3
2016-Jul-27 12:23N 29°51' W 012°14'910.3
2016-Jul-27 11:28N 29°44' W 012°20'910.0
2016-Jul-27 10:33N 29°36' W 012°26'1010.1
2016-Jul-27 09:33N 29°28' W 012°33'10 9.9
2016-Jul-27 08:34N 29°20' W 012°39'1010.1
2016-Jul-27 07:33N 29°11' W 012°46'1010.5
2016-Jul-27 06:33N 29°03' W 012°53'1110.6
2016-Jul-27 05:33N 28°54' W 013°00'1010.5
2016-Jul-27 04:33N 28°46' W 013°07'1211.4
2016-Jul-27 03:33N 28°36' W 013°14'1111.2
2016-Jul-27 02:33N 28°27' W 013°21'1111.1
2016-Jul-27 01:33N 28°18' W 013°28'1110.9
2016-Jul-27 00:34N 28°09' W 013°36'1010.4
2016-Jul-26 23:33N 28°00' W 013°42'1010.4
2016-Jul-26 22:34N 27°52' W 013°49'1110.8
2016-Jul-26 21:34N 27°43' W 013°56'1111.2
2016-Jul-26 20:33N 27°34' W 014°04'1611.5
2016-Jul-26 19:12N 27°21' W 014°14'1412.3
2016-Jul-26 18:04N 27°10' W 014°22'1912.4
2016-Jul-26 16:33N 26°54' W 014°33'  

Dump ship's entire track history